createdAt,value
2022-08-22T00:01:11.442Z,20.30
2022-08-22T00:04:22.945Z,20.10
2022-08-22T00:07:39.774Z,20.00
2022-08-22T00:11:12.444Z,20.00
2022-08-22T00:14:19.966Z,20.00
2022-08-22T00:17:29.707Z,20.10
2022-08-22T00:20:48.627Z,20.00
2022-08-22T00:24:17.657Z,20.00
2022-08-22T00:27:26.872Z,19.90
2022-08-22T00:30:30.465Z,20.00
2022-08-22T00:34:03.569Z,20.00
2022-08-22T00:37:22.372Z,19.80
2022-08-22T00:40:38.953Z,19.80
2022-08-22T00:44:04.819Z,19.80
2022-08-22T00:47:18.478Z,19.70
2022-08-22T00:50:26.495Z,19.60
2022-08-22T00:53:57.271Z,19.60
2022-08-22T00:57:08.072Z,19.70
2022-08-22T01:00:16.278Z,19.70
2022-08-22T01:03:47.288Z,19.70
2022-08-22T01:07:13.760Z,19.80
2022-08-22T01:10:37.756Z,19.70
2022-08-22T01:13:54.970Z,19.70
2022-08-22T01:17:05.841Z,19.60
2022-08-22T01:20:41.858Z,19.70
2022-08-22T01:24:05.369Z,19.60
2022-08-22T01:27:28.200Z,19.70
2022-08-22T01:31:07.442Z,19.60
2022-08-22T01:34:36.335Z,19.60
2022-08-22T01:38:22.548Z,19.80
2022-08-22T01:41:41.412Z,19.80
2022-08-22T01:45:11.263Z,19.60
2022-08-22T01:48:21.559Z,19.60
2022-08-22T01:51:24.787Z,19.70
2022-08-22T01:54:35.922Z,19.60
2022-08-22T01:58:00.780Z,19.70
2022-08-22T02:01:33.986Z,19.60
2022-08-22T02:04:48.395Z,19.70
2022-08-22T02:07:50.245Z,19.70
2022-08-22T02:11:08.919Z,19.60
2022-08-22T02:14:36.601Z,19.60
2022-08-22T02:18:22.898Z,19.60
2022-08-22T02:21:39.964Z,19.60
2022-08-22T02:24:51.083Z,19.50
2022-08-22T02:28:20.752Z,19.50
2022-08-22T02:31:40.369Z,19.50
2022-08-22T02:35:01.468Z,19.50
2022-08-22T02:38:40.989Z,19.40
2022-08-22T02:42:07.127Z,19.40
2022-08-22T02:45:41.917Z,19.40
2022-08-22T02:49:07.612Z,19.30
2022-08-22T02:52:12.481Z,19.20
2022-08-22T02:55:21.353Z,19.20
2022-08-22T02:58:59.302Z,19.00
2022-08-22T03:02:37.716Z,18.90
2022-08-22T03:05:39.966Z,18.80
2022-08-22T03:09:07.644Z,18.90
2022-08-22T03:12:21.700Z,18.90
2022-08-22T03:15:49.320Z,18.90
2022-08-22T03:19:06.420Z,19.00
2022-08-22T03:22:36.250Z,19.10
2022-08-22T03:26:08.791Z,19.10
2022-08-22T03:29:18.600Z,19.00
2022-08-22T03:32:24.000Z,19.10
2022-08-22T03:35:44.301Z,19.10
2022-08-22T03:39:19.176Z,19.00
2022-08-22T03:42:33.056Z,19.00
2022-08-22T03:45:41.001Z,19.10
2022-08-22T03:48:45.683Z,19.20
2022-08-22T03:51:53.595Z,19.20
2022-08-22T03:55:14.251Z,19.20
2022-08-22T03:58:53.366Z,19.30
2022-08-22T04:02:42.915Z,19.30
2022-08-22T04:05:58.270Z,19.40
2022-08-22T04:09:18.318Z,19.40
2022-08-22T04:12:29.205Z,19.40
2022-08-22T04:15:31.850Z,19.50
2022-08-22T04:19:12.375Z,19.50
2022-08-22T04:22:17.088Z,19.60
2022-08-22T04:25:25.696Z,19.70
2022-08-22T04:28:37.894Z,19.80
2022-08-22T04:31:51.425Z,20.00
2022-08-22T04:35:02.392Z,20.00
2022-08-22T04:38:40.461Z,20.20
2022-08-22T04:42:00.730Z,20.20
2022-08-22T04:45:17.076Z,20.20
2022-08-22T04:48:34.514Z,20.40
2022-08-22T04:51:48.909Z,20.40
2022-08-22T04:55:20.955Z,20.50
2022-08-22T04:58:34.642Z,20.70
2022-08-22T05:01:46.794Z,20.90
2022-08-22T05:05:04.334Z,20.70
2022-08-22T05:08:11.833Z,20.90
2022-08-22T05:11:19.170Z,20.90
2022-08-22T05:15:19.019Z,21.10
2022-08-22T05:18:32.556Z,21.20
2022-08-22T05:21:38.728Z,21.40
2022-08-22T05:24:46.484Z,21.50
2022-08-22T05:27:53.159Z,21.60
2022-08-22T05:30:58.844Z,21.60
2022-08-22T05:34:11.397Z,21.90
2022-08-22T05:37:24.759Z,22.10
2022-08-22T05:40:29.174Z,22.10
2022-08-22T05:43:36.650Z,22.20
2022-08-22T05:46:44.534Z,22.30
2022-08-22T05:50:23.842Z,22.20
2022-08-22T05:53:34.903Z,22.30
2022-08-22T05:56:42.306Z,22.40
2022-08-22T05:59:46.724Z,22.50
2022-08-22T06:03:15.292Z,22.60
2022-08-22T06:06:19.454Z,22.60
2022-08-22T06:09:39.495Z,22.80
2022-08-22T06:13:16.213Z,22.60
2022-08-22T06:16:47.590Z,22.80
2022-08-22T06:19:53.644Z,22.80
2022-08-22T06:23:00.381Z,23.20
2022-08-22T06:26:03.943Z,23.20
2022-08-22T06:29:08.614Z,23.40
2022-08-22T06:32:44.374Z,23.40
2022-08-22T06:36:21.222Z,23.20
2022-08-22T06:39:36.687Z,23.20
2022-08-22T06:42:43.445Z,23.40
2022-08-22T06:45:45.750Z,23.60
2022-08-22T06:48:48.771Z,23.60
2022-08-22T06:51:50.842Z,23.70
2022-08-22T06:55:00.479Z,23.70
2022-08-22T06:58:11.896Z,23.90
2022-08-22T07:01:27.301Z,23.80
2022-08-22T07:04:30.372Z,23.80
2022-08-22T07:07:32.220Z,24.10
2022-08-22T07:10:34.602Z,24.00
2022-08-22T07:13:39.403Z,24.00
2022-08-22T07:17:16.313Z,24.00
2022-08-22T07:20:25.834Z,24.00
2022-08-22T07:23:36.125Z,24.10
2022-08-22T07:27:05.925Z,24.40
2022-08-22T07:30:14.785Z,24.40
2022-08-22T07:33:44.086Z,24.50
2022-08-22T07:37:01.604Z,24.20
2022-08-22T07:40:20.387Z,24.40
2022-08-22T07:43:48.685Z,24.60
2022-08-22T07:47:02.362Z,24.80
2022-08-22T07:50:08.489Z,24.90
2022-08-22T07:53:28.488Z,24.40
2022-08-22T07:56:52.242Z,24.30
2022-08-22T07:59:58.172Z,24.40
2022-08-22T08:03:05.800Z,24.20
2022-08-22T08:06:09.486Z,24.10
2022-08-22T08:09:17.465Z,24.20
2022-08-22T08:12:26.163Z,24.30
2022-08-22T08:15:28.115Z,24.20
2022-08-22T08:18:34.127Z,24.40
2022-08-22T08:21:53.530Z,24.60
2022-08-22T08:25:00.828Z,24.80
2022-08-22T08:28:22.871Z,25.20
2022-08-22T08:31:32.046Z,25.30
2022-08-22T08:34:35.427Z,25.50
2022-08-22T08:38:05.061Z,25.10
2022-08-22T08:41:28.201Z,25.60
2022-08-22T08:44:46.060Z,25.50
2022-08-22T08:48:21.100Z,24.70
2022-08-22T08:51:43.233Z,25.00
2022-08-22T08:55:19.650Z,24.80
2022-08-22T08:58:37.994Z,25.10
2022-08-22T09:02:05.476Z,25.40
2022-08-22T09:05:25.437Z,25.80
2022-08-22T09:09:00.144Z,26.00
2022-08-22T09:12:08.575Z,25.90
2022-08-22T09:15:58.757Z,25.80
2022-08-22T09:19:47.422Z,25.90
2022-08-22T09:23:33.883Z,26.40
2022-08-22T09:26:40.393Z,26.40
2022-08-22T09:30:04.702Z,26.00
2022-08-22T09:33:15.235Z,26.40
2022-08-22T09:36:54.434Z,26.40
2022-08-22T09:40:06.763Z,26.30
2022-08-22T09:43:33.750Z,26.50
2022-08-22T09:46:50.139Z,26.60
2022-08-22T09:50:24.680Z,26.70
2022-08-22T09:54:03.534Z,26.70
2022-08-22T09:57:29.716Z,26.70
2022-08-22T10:00:38.429Z,26.60
2022-08-22T10:03:46.168Z,26.80
2022-08-22T10:07:08.542Z,27.10
2022-08-22T10:10:22.439Z,27.00
2022-08-22T10:13:42.025Z,26.90
2022-08-22T10:17:05.372Z,27.00
2022-08-22T10:20:27.696Z,27.00
2022-08-22T10:23:45.956Z,26.80
2022-08-22T10:26:54.587Z,27.20
2022-08-22T10:30:10.811Z,27.20
2022-08-22T10:33:35.791Z,27.40
2022-08-22T10:37:02.906Z,27.30
2022-08-22T10:40:13.378Z,27.40
2022-08-22T10:43:28.875Z,27.20
2022-08-22T10:46:36.286Z,27.30
2022-08-22T10:49:51.236Z,27.00
2022-08-22T10:53:29.375Z,27.50
2022-08-22T10:56:37.260Z,27.80
2022-08-22T11:00:22.532Z,27.70
2022-08-22T11:04:02.303Z,28.00
2022-08-22T11:07:28.994Z,27.90
2022-08-22T11:10:52.210Z,27.70
2022-08-22T11:13:57.117Z,27.60
2022-08-22T11:17:31.185Z,27.50
2022-08-22T11:20:58.497Z,27.40
2022-08-22T11:24:34.928Z,27.50
2022-08-22T11:27:51.986Z,27.50
2022-08-22T11:31:13.651Z,27.70
2022-08-22T11:35:11.219Z,27.90
2022-08-22T11:38:32.625Z,28.20
2022-08-22T11:41:45.487Z,28.20
2022-08-22T11:45:05.997Z,28.30
2022-08-22T11:48:25.197Z,27.90
2022-08-22T11:51:51.863Z,27.80
2022-08-22T11:55:50.376Z,27.70
2022-08-22T11:59:12.600Z,27.70
2022-08-22T12:02:27.038Z,27.90
2022-08-22T12:05:44.450Z,27.90
2022-08-22T12:08:51.498Z,27.60
2022-08-22T12:12:12.768Z,27.70
2022-08-22T12:15:37.641Z,27.80
2022-08-22T12:19:06.332Z,27.50
2022-08-22T12:22:34.948Z,27.60
2022-08-22T12:25:45.483Z,27.80
2022-08-22T12:29:33.585Z,27.80
2022-08-22T12:33:01.643Z,27.90
2022-08-22T12:36:40.948Z,28.00
2022-08-22T12:39:55.270Z,28.10
2022-08-22T12:43:54.601Z,28.00
2022-08-22T12:47:14.819Z,27.70
2022-08-22T12:50:58.023Z,27.80
2022-08-22T12:54:35.342Z,27.80
2022-08-22T12:57:58.986Z,27.70
2022-08-22T13:01:11.356Z,28.00
2022-08-22T13:04:32.754Z,27.80
2022-08-22T13:07:38.423Z,27.80
2022-08-22T13:10:48.003Z,28.00
2022-08-22T13:13:56.586Z,27.50
2022-08-22T13:17:23.897Z,27.80
2022-08-22T13:20:37.621Z,27.90
2022-08-22T13:23:51.710Z,28.30
2022-08-22T13:27:00.658Z,28.40
2022-08-22T13:30:12.384Z,28.40
2022-08-22T13:33:23.292Z,28.30
2022-08-22T13:36:26.938Z,28.60
2022-08-22T13:39:42.790Z,28.90
2022-08-22T13:42:54.205Z,29.10
2022-08-22T13:46:01.889Z,28.70
2022-08-22T13:49:10.060Z,28.90
2022-08-22T13:52:30.299Z,29.00
2022-08-22T13:55:44.748Z,29.50
2022-08-22T13:58:57.244Z,29.60
2022-08-22T14:02:17.805Z,29.40
2022-08-22T14:05:31.461Z,29.20
2022-08-22T14:08:36.625Z,28.70
2022-08-22T14:11:50.068Z,28.90
2022-08-22T14:15:01.303Z,29.20
2022-08-22T14:18:15.407Z,29.10
2022-08-22T14:21:40.487Z,29.90
2022-08-22T14:24:55.625Z,29.80
2022-08-22T14:28:03.014Z,29.40
2022-08-22T14:31:14.414Z,28.70
2022-08-22T14:34:17.410Z,29.10
2022-08-22T14:37:35.244Z,29.30
2022-08-22T14:40:42.048Z,29.30
2022-08-22T14:44:05.389Z,29.00
2022-08-22T14:47:32.448Z,28.40
2022-08-22T14:50:37.274Z,28.60
2022-08-22T14:53:40.557Z,28.60
2022-08-22T14:56:44.772Z,29.20
2022-08-22T14:59:53.062Z,29.00
2022-08-22T15:03:24.566Z,28.60
2022-08-22T15:06:50.923Z,28.20
2022-08-22T15:10:03.299Z,28.30
2022-08-22T15:13:08.527Z,28.10
2022-08-22T15:16:22.199Z,28.20
2022-08-22T15:19:42.933Z,28.30
2022-08-22T15:22:47.258Z,28.20
2022-08-22T15:26:06.956Z,27.90
2022-08-22T15:29:23.232Z,27.70
2022-08-22T15:32:31.953Z,27.50
2022-08-22T15:35:38.986Z,27.30
2022-08-22T15:38:48.077Z,27.30
2022-08-22T15:41:51.065Z,27.20
2022-08-22T15:44:54.973Z,27.30
2022-08-22T15:47:58.462Z,27.00
2022-08-22T15:51:01.870Z,26.80
2022-08-22T15:54:24.837Z,26.60
2022-08-22T15:57:35.370Z,26.30
2022-08-22T16:01:04.778Z,26.10
2022-08-22T16:04:43.792Z,25.90
2022-08-22T16:07:51.520Z,25.80
2022-08-22T16:11:20.515Z,25.80
2022-08-22T16:14:34.900Z,25.60
2022-08-22T16:17:45.403Z,25.60
2022-08-22T16:20:54.313Z,25.40
2022-08-22T16:23:59.181Z,25.30
2022-08-22T16:27:18.974Z,25.20
2022-08-22T16:30:33.630Z,25.20
2022-08-22T16:33:38.991Z,25.20
2022-08-22T16:36:46.721Z,25.10
2022-08-22T16:40:18.487Z,25.10
2022-08-22T16:43:20.909Z,25.00
2022-08-22T16:46:33.210Z,24.90
2022-08-22T16:49:55.808Z,24.90
2022-08-22T16:53:03.638Z,24.90
2022-08-22T16:56:22.541Z,24.80
2022-08-22T16:59:49.691Z,24.70
2022-08-22T17:03:06.370Z,24.70
2022-08-22T17:06:41.815Z,24.60
2022-08-22T17:10:11.608Z,24.60
2022-08-22T17:13:26.300Z,24.50
2022-08-22T17:16:37.524Z,24.50
2022-08-22T17:19:46.728Z,24.40
2022-08-22T17:23:08.633Z,24.40
2022-08-22T17:26:34.711Z,24.30
2022-08-22T17:29:53.727Z,24.20
2022-08-22T17:33:01.473Z,24.20
2022-08-22T17:36:26.218Z,24.10
2022-08-22T17:39:56.043Z,24.00
2022-08-22T17:43:01.178Z,23.90
2022-08-22T17:46:29.859Z,23.80
2022-08-22T17:50:00.768Z,23.70
2022-08-22T17:53:09.102Z,23.60
2022-08-22T17:56:18.991Z,23.60
2022-08-22T17:59:31.256Z,23.60
2022-08-22T18:02:55.328Z,23.60
2022-08-22T18:06:06.006Z,23.40
2022-08-22T18:09:19.753Z,23.40
2022-08-22T18:12:34.377Z,23.30
2022-08-22T18:15:42.745Z,23.30
2022-08-22T18:19:22.390Z,23.20
2022-08-22T18:22:33.528Z,23.20
2022-08-22T18:25:43.582Z,23.00
2022-08-22T18:29:00.331Z,22.90
2022-08-22T18:32:33.101Z,22.80
2022-08-22T18:35:54.543Z,22.80
2022-08-22T18:38:59.623Z,22.70
2022-08-22T18:42:18.360Z,22.70
2022-08-22T18:45:46.052Z,22.70
2022-08-22T18:49:13.674Z,22.50
2022-08-22T18:52:10.078Z,22.40
2022-08-22T18:55:20.872Z,22.40
2022-08-22T18:58:44.478Z,22.40
2022-08-22T19:02:04.970Z,22.30
2022-08-22T19:05:34.174Z,22.30
2022-08-22T19:08:52.982Z,22.40
2022-08-22T19:12:32.108Z,22.20
2022-08-22T19:15:55.685Z,22.10
2022-08-22T19:19:17.401Z,22.00
2022-08-22T19:22:19.661Z,21.90
2022-08-22T19:25:28.095Z,22.00
2022-08-22T19:28:36.942Z,22.10
2022-08-22T19:31:41.237Z,22.10
2022-08-22T19:34:47.841Z,22.20
2022-08-22T19:38:10.631Z,22.00
2022-08-22T19:41:41.547Z,22.20
2022-08-22T19:44:46.462Z,22.20
2022-08-22T19:48:01.010Z,22.10
2022-08-22T19:51:14.082Z,22.20
2022-08-22T19:54:23.114Z,22.10
2022-08-22T19:57:40.118Z,22.20
2022-08-22T20:01:12.663Z,22.30
2022-08-22T20:05:01.933Z,22.30
2022-08-22T20:08:21.757Z,22.00
2022-08-22T20:11:51.799Z,22.30
2022-08-22T20:14:54.373Z,22.20
2022-08-22T20:18:12.250Z,22.20
2022-08-22T20:21:40.082Z,22.10
2022-08-22T20:24:56.170Z,22.20
2022-08-22T20:28:05.368Z,22.10
2022-08-22T20:31:19.159Z,22.20
2022-08-22T20:34:26.726Z,22.20
2022-08-22T20:41:24.525Z,22.20
2022-08-22T20:44:34.707Z,22.20
2022-08-22T20:47:41.291Z,22.20
2022-08-22T20:50:44.393Z,22.20
2022-08-22T20:54:00.400Z,22.20
2022-08-22T20:57:14.022Z,22.10
2022-08-22T21:00:23.165Z,22.00
2022-08-22T21:03:40.970Z,22.00
2022-08-22T21:06:43.527Z,21.90
2022-08-22T21:10:21.724Z,21.90
2022-08-22T21:13:36.629Z,22.10
2022-08-22T21:16:38.509Z,22.00
2022-08-22T21:19:40.448Z,22.10
2022-08-22T21:22:42.552Z,22.10
2022-08-22T21:25:49.128Z,22.00
2022-08-22T21:29:05.267Z,22.00
2022-08-22T21:32:14.821Z,22.20
2022-08-22T21:35:30.720Z,22.00
2022-08-22T21:38:33.036Z,22.00
2022-08-22T21:41:40.361Z,22.10
2022-08-22T21:44:53.984Z,22.00
2022-08-22T21:47:56.973Z,21.90
2022-08-22T21:51:17.688Z,21.90
2022-08-22T21:54:20.841Z,21.80
2022-08-22T21:57:35.396Z,21.70
2022-08-22T22:00:48.943Z,21.70
2022-08-22T22:03:52.593Z,21.50
2022-08-22T22:06:54.606Z,21.40
2022-08-22T22:09:57.054Z,21.40
2022-08-22T22:12:59.734Z,21.50
2022-08-22T22:16:01.867Z,21.70
2022-08-22T22:19:07.756Z,21.60
2022-08-22T22:22:09.709Z,21.60
2022-08-22T22:25:40.645Z,21.70
2022-08-22T22:28:47.555Z,21.70
2022-08-22T22:31:49.567Z,21.60
2022-08-22T22:34:51.501Z,21.70
2022-08-22T22:37:54.401Z,21.70
2022-08-22T22:40:56.486Z,21.60
2022-08-22T22:43:58.438Z,21.60
2022-08-22T22:47:04.830Z,21.50
2022-08-22T22:50:07.367Z,21.40
2022-08-22T22:53:09.955Z,21.50
2022-08-22T22:56:15.843Z,21.40
2022-08-22T22:59:18.039Z,21.30
2022-08-22T23:02:26.569Z,21.20
2022-08-22T23:05:31.985Z,21.10
2022-08-22T23:08:33.892Z,21.10
2022-08-22T23:11:35.948Z,21.00
2022-08-22T23:14:37.851Z,21.10
2022-08-22T23:17:43.195Z,21.10
2022-08-22T23:20:45.094Z,21.00
2022-08-22T23:23:48.652Z,20.90
2022-08-22T23:26:50.602Z,20.90
2022-08-22T23:29:52.900Z,21.00
2022-08-22T23:32:55.739Z,21.00
2022-08-22T23:35:59.959Z,20.90
2022-08-22T23:39:02.866Z,20.90
2022-08-22T23:42:07.189Z,21.00
2022-08-22T23:45:09.511Z,20.90
2022-08-22T23:48:11.478Z,20.80
2022-08-22T23:51:15.845Z,20.70
2022-08-22T23:54:19.530Z,20.60
2022-08-22T23:57:26.564Z,20.60
